Terminal Aerodrome Forecast
Issued by NWS

Home | Current Version | Previous Version | Text Only | Print | Product List | Glossary On
Versions: 1 2 3 4 5 6 7 8 9 10 11 12 13 14 15 16 17 18 19 20 21 22
000
FTUS41 KILN 290500
TAFLUK
TAF
KLUK 290528Z 2906/3006 17004KT P6SM SCT150
     FM291200 19012KT P6SM BKN040
     FM291500 20012G22KT P6SM OVC025
     FM292100 21012KT 5SM -DZ BR SCT008 OVC012
     FM300100 21012KT 5SM -RA BR SCT005 OVC008=

USA.gov is the U.S. government's official web portal to all federal, state and local government web resources and services.